Terminal Aerodrome Forecast
Issued by NWS

Home | Current Version | Previous Version | Text Only | Print | Product List | Glossary On
Versions: 1 2 3 4 5 6 7 8 9 10 11 12 13 14 15 16 17 18 19 20 21 22 23 24 25
000
FTUS41 KGYX 250152 AAB
TAFHIE
TAF AMD
KHIE 250152Z 2502/2524 VRB03KT 3SM -SN BKN025 OVC050
      TEMPO 2502/2503 2SM -SN SCT012 OVC025
     FM250300 VRB03KT 3SM -SHSN BKN012 OVC030
     FM250700 VRB03KT P6SM BKN030 OVC040
     FM251400 35004KT P6SM BKN040 OVC060=

USA.gov is the U.S. government's official web portal to all federal, state and local government web resources and services.